createdAt,value
2019-02-23T00:00:00.703Z,1039.69
2019-02-23T00:01:00.693Z,1039.64
2019-02-23T00:02:00.689Z,1039.57
2019-02-23T00:03:00.677Z,1039.57
2019-02-23T00:04:00.702Z,1039.51
2019-02-23T00:05:00.651Z,1039.51
2019-02-23T00:06:00.644Z,1039.63
2019-02-23T00:07:00.644Z,1039.58
2019-02-23T00:08:00.617Z,1039.54
2019-02-23T00:09:00.603Z,1039.50
2019-02-23T00:10:00.591Z,1039.48
2019-02-23T00:11:00.588Z,1039.48
2019-02-23T00:12:00.573Z,1039.40
2019-02-23T00:13:00.559Z,1039.45
2019-02-23T00:14:00.542Z,1039.60
2019-02-23T00:15:00.542Z,1039.54
2019-02-23T00:16:00.524Z,1039.62
2019-02-23T00:17:00.518Z,1039.62
2019-02-23T00:18:00.524Z,1039.59
2019-02-23T00:19:00.495Z,1039.54
2019-02-23T00:20:00.478Z,1039.60
2019-02-23T00:21:00.466Z,1039.58
2019-02-23T00:22:00.460Z,1039.60
2019-02-23T00:23:00.460Z,1039.69
2019-02-23T00:24:00.436Z,1039.65
2019-02-23T00:25:00.422Z,1039.70
2019-02-23T00:26:00.412Z,1039.71
2019-02-23T00:27:00.411Z,1039.70
2019-02-23T00:28:00.393Z,1039.65
2019-02-23T00:29:00.374Z,1039.70
2019-02-23T00:30:00.367Z,1039.72
2019-02-23T00:31:00.366Z,1039.70
2019-02-23T00:32:00.350Z,1039.71
2019-02-23T00:33:00.328Z,1039.69
2019-02-23T00:34:00.332Z,1039.65
2019-02-23T00:35:00.339Z,1039.64
2019-02-23T00:36:00.298Z,1039.65
2019-02-23T00:37:00.288Z,1039.58
2019-02-23T00:38:00.272Z,1039.56
2019-02-23T00:39:00.276Z,1039.64
2019-02-23T00:40:00.301Z,1039.62
2019-02-23T00:41:00.237Z,1039.53
2019-02-23T00:42:00.231Z,1039.55
2019-02-23T00:43:00.227Z,1039.49
2019-02-23T00:44:00.208Z,1039.41
2019-02-23T00:45:00.242Z,1039.46
2019-02-23T00:46:00.186Z,1039.48
2019-02-23T00:47:00.172Z,1039.42
2019-02-23T00:48:00.183Z,1039.47
2019-02-23T00:49:00.151Z,1039.43
2019-02-23T00:50:00.225Z,1039.38
2019-02-23T00:51:00.149Z,1039.54
2019-02-23T00:52:00.129Z,1039.46
2019-02-23T00:53:00.103Z,1039.51
2019-02-23T00:54:00.107Z,1039.55
2019-02-23T00:55:00.258Z,1039.56
2019-02-23T00:56:00.085Z,1039.59
2019-02-23T00:57:00.148Z,1039.55
2019-02-23T00:58:00.057Z,1039.46
2019-02-23T00:59:00.041Z,1039.53
2019-02-23T01:00:00.026Z,1039.50
2019-02-23T01:01:00.021Z,1039.50
2019-02-23T01:02:00.035Z,1039.52
2019-02-23T01:03:00.014Z,1039.56
2019-02-23T01:03:59.980Z,1039.52
2019-02-23T01:04:59.977Z,1039.66
2019-02-23T01:05:59.967Z,1039.62
2019-02-23T01:06:59.960Z,1039.60
2019-02-23T01:07:59.954Z,1039.52
2019-02-23T01:08:59.922Z,1039.47
2019-02-23T01:09:59.914Z,1039.36
2019-02-23T01:10:59.900Z,1039.31
2019-02-23T01:11:59.902Z,1039.27
2019-02-23T01:12:59.888Z,1039.26
2019-02-23T01:13:59.878Z,1039.27
2019-02-23T01:14:59.862Z,1039.25
2019-02-23T01:15:59.854Z,1039.24
2019-02-23T01:16:59.837Z,1039.15
2019-02-23T01:17:59.834Z,1039.18
2019-02-23T01:18:59.823Z,1039.13
2019-02-23T01:19:59.804Z,1039.19
2019-02-23T01:20:59.796Z,1039.12
2019-02-23T01:21:59.783Z,1039.11
2019-02-23T01:22:59.767Z,1039.10
2019-02-23T01:23:59.777Z,1039.06
2019-02-23T01:24:59.753Z,1039.06
2019-02-23T01:25:59.735Z,1039.07
2019-02-23T01:26:59.744Z,1039.03
2019-02-23T01:27:59.715Z,1039.00
2019-02-23T01:28:59.790Z,1039.01
2019-02-23T01:29:59.700Z,1038.96
2019-02-23T01:30:59.676Z,1038.90
2019-02-23T01:31:59.670Z,1038.96
2019-02-23T01:32:59.657Z,1038.93
2019-02-23T01:33:59.653Z,1038.91
2019-02-23T01:34:59.635Z,1038.83
2019-02-23T01:35:59.620Z,1038.82
2019-02-23T01:36:59.617Z,1038.80
2019-02-23T01:37:59.601Z,1038.74
2019-02-23T01:38:59.598Z,1038.72
2019-02-23T01:39:59.579Z,1038.71
2019-02-23T01:40:59.572Z,1038.67
2019-02-23T01:41:59.569Z,1038.67
2019-02-23T01:42:59.545Z,1038.71
2019-02-23T01:44:00.525Z,1038.68
2019-02-23T01:44:59.533Z,1038.67
2019-02-23T01:45:59.537Z,1038.71
2019-02-23T01:46:59.507Z,1038.70
2019-02-23T01:47:59.489Z,1038.71
2019-02-23T01:48:59.477Z,1038.80
2019-02-23T01:49:59.478Z,1038.74
2019-02-23T01:50:59.460Z,1038.81
2019-02-23T01:51:59.458Z,1038.87
2019-02-23T01:52:59.433Z,1038.88
2019-02-23T01:53:59.438Z,1038.87
2019-02-23T01:54:59.423Z,1038.80
2019-02-23T01:55:59.406Z,1038.82
2019-02-23T01:56:59.399Z,1038.88
2019-02-23T01:57:59.385Z,1038.76
2019-02-23T01:58:59.376Z,1038.82
2019-02-23T01:59:59.361Z,1038.76
2019-02-23T02:00:59.346Z,1038.73
2019-02-23T02:01:59.350Z,1038.74
2019-02-23T02:02:59.324Z,1038.78
2019-02-23T02:03:59.326Z,1038.79
2019-02-23T02:04:59.309Z,1038.80
2019-02-23T02:05:59.302Z,1038.74
2019-02-23T02:06:59.286Z,1038.70
2019-02-23T02:07:59.290Z,1038.63
2019-02-23T02:08:59.260Z,1038.70
2019-02-23T02:09:59.269Z,1038.77
2019-02-23T02:10:59.246Z,1038.77
2019-02-23T02:11:59.230Z,1038.76
2019-02-23T02:12:59.250Z,1038.78
2019-02-23T02:13:59.203Z,1038.78
2019-02-23T02:14:59.206Z,1038.79
2019-02-23T02:15:59.184Z,1038.81
2019-02-23T02:16:59.179Z,1038.77
2019-02-23T02:17:59.156Z,1038.80
2019-02-23T02:18:59.161Z,1038.76
2019-02-23T02:20:10.165Z,1038.78
2019-02-23T02:21:00.125Z,1038.83
2019-02-23T02:21:59.127Z,1038.85
2019-02-23T02:22:59.117Z,1038.75
2019-02-23T02:23:59.104Z,1038.70
2019-02-23T02:24:59.093Z,1038.60
2019-02-23T02:25:59.077Z,1038.57
2019-02-23T02:26:59.069Z,1038.59
2019-02-23T02:27:59.049Z,1038.53
2019-02-23T02:28:59.053Z,1038.47
2019-02-23T02:29:59.043Z,1038.46
2019-02-23T02:30:59.025Z,1038.53
2019-02-23T02:31:59.014Z,1038.47
2019-02-23T02:32:59.008Z,1038.55
2019-02-23T02:33:58.993Z,1038.55
2019-02-23T02:34:58.987Z,1038.64
2019-02-23T02:35:58.987Z,1038.58
2019-02-23T02:36:58.966Z,1038.57
2019-02-23T02:37:58.957Z,1038.58
2019-02-23T02:38:58.934Z,1038.55
2019-02-23T02:39:58.921Z,1038.53
2019-02-23T02:40:58.922Z,1038.50
2019-02-23T02:41:58.900Z,1038.56
2019-02-23T02:42:58.895Z,1038.51
2019-02-23T02:43:58.888Z,1038.53
2019-02-23T02:44:58.866Z,1038.49
2019-02-23T02:45:58.859Z,1038.54
2019-02-23T02:46:58.860Z,1038.52
2019-02-23T02:47:58.844Z,1038.50
2019-02-23T02:48:58.827Z,1038.49
2019-02-23T02:49:58.832Z,1038.55
2019-02-23T02:50:58.810Z,1038.50
2019-02-23T02:51:58.793Z,1038.44
2019-02-23T02:52:58.791Z,1038.45
2019-02-23T02:53:58.777Z,1038.43
2019-02-23T02:54:58.775Z,1038.33
2019-02-23T02:55:58.746Z,1038.29
2019-02-23T02:56:58.744Z,1038.23
2019-02-23T02:57:58.728Z,1038.34
2019-02-23T02:58:58.718Z,1038.21
2019-02-23T02:59:58.707Z,1038.15
2019-02-23T03:00:58.699Z,1038.12
2019-02-23T03:01:58.994Z,1038.25
2019-02-23T03:02:58.675Z,1038.21
2019-02-23T03:03:58.665Z,1038.21
2019-02-23T03:04:58.674Z,1038.27
2019-02-23T03:05:58.637Z,1038.22
2019-02-23T03:06:58.634Z,1038.23
2019-02-23T03:07:58.618Z,1038.28
2019-02-23T03:08:58.615Z,1038.27
2019-02-23T03:09:58.702Z,1038.30
2019-02-23T03:10:58.603Z,1038.23
2019-02-23T03:11:58.577Z,1038.23
2019-02-23T03:12:58.575Z,1038.27
2019-02-23T03:13:58.570Z,1038.24
2019-02-23T03:14:58.551Z,1038.29
2019-02-23T03:15:58.533Z,1038.30
2019-02-23T03:16:58.530Z,1038.31
2019-02-23T03:17:58.515Z,1038.29
2019-02-23T03:18:58.516Z,1038.28
2019-02-23T03:19:58.489Z,1038.34
2019-02-23T03:20:58.476Z,1038.36
2019-02-23T03:21:58.472Z,1038.35
2019-02-23T03:22:58.461Z,1038.30
2019-02-23T03:23:58.448Z,1038.36
2019-02-23T03:24:58.437Z,1038.33
2019-02-23T03:25:58.425Z,1038.41
2019-02-23T03:26:58.414Z,1038.46
2019-02-23T03:27:58.412Z,1038.43
2019-02-23T03:28:58.394Z,1038.43
2019-02-23T03:29:58.403Z,1038.44
2019-02-23T03:30:58.370Z,1038.44
2019-02-23T03:31:58.363Z,1038.39
2019-02-23T03:32:58.351Z,1038.44
2019-02-23T03:33:58.345Z,1038.40
2019-02-23T03:34:58.351Z,1038.41
2019-02-23T03:35:58.310Z,1038.37
2019-02-23T03:36:58.308Z,1038.39
2019-02-23T03:37:58.309Z,1038.39
2019-02-23T03:38:58.280Z,1038.35
2019-02-23T03:39:58.277Z,1038.35
2019-02-23T03:40:58.268Z,1038.28
2019-02-23T03:41:58.276Z,1038.24
2019-02-23T03:42:58.242Z,1038.35
2019-02-23T03:43:58.230Z,1038.27
2019-02-23T03:44:58.218Z,1038.31
2019-02-23T03:45:58.211Z,1038.32
2019-02-23T03:46:58.206Z,1038.36
2019-02-23T03:47:58.186Z,1038.39
2019-02-23T03:48:58.200Z,1038.38
2019-02-23T03:49:58.165Z,1038.46
2019-02-23T03:50:58.173Z,1038.48
2019-02-23T03:51:58.141Z,1038.54
2019-02-23T03:52:58.145Z,1038.50
2019-02-23T03:53:58.121Z,1038.43
2019-02-23T03:54:58.113Z,1038.39
2019-02-23T03:55:58.094Z,1038.35
2019-02-23T03:56:58.081Z,1038.35
2019-02-23T03:57:58.082Z,1038.38
2019-02-23T03:58:58.066Z,1038.37
2019-02-23T03:59:58.055Z,1038.31
2019-02-23T04:00:58.041Z,1038.45
2019-02-23T04:01:58.035Z,1038.41
2019-02-23T04:02:58.019Z,1038.42
2019-02-23T04:03:58.015Z,1038.50
2019-02-23T04:04:58.009Z,1038.47
2019-02-23T04:05:57.998Z,1038.47
2019-02-23T04:06:57.980Z,1038.39
2019-02-23T04:07:57.974Z,1038.35
2019-02-23T04:08:57.954Z,1038.36
2019-02-23T04:09:57.975Z,1038.22
2019-02-23T04:10:57.936Z,1038.23
2019-02-23T04:11:57.922Z,1038.18
2019-02-23T04:12:57.912Z,1038.20
2019-02-23T04:13:57.920Z,1038.22
2019-02-23T04:14:57.897Z,1038.29
2019-02-23T04:15:57.887Z,1038.24
2019-02-23T04:16:57.872Z,1038.33
2019-02-23T04:18:05.035Z,1038.34
2019-02-23T04:19:39.539Z,1038.31
2019-02-23T04:20:39.511Z,1038.43
2019-02-23T04:22:21.195Z,1038.51
2019-02-23T04:23:21.159Z,1038.47
2019-02-23T04:25:03.426Z,1038.60
2019-02-23T04:26:03.010Z,1038.63
2019-02-23T04:27:44.687Z,1038.75
2019-02-23T04:28:44.646Z,1038.79
2019-02-23T04:30:26.315Z,1038.89
2019-02-23T04:31:26.301Z,1038.91
2019-02-23T04:32:26.301Z,1038.91
2019-02-23T04:33:26.285Z,1038.91
2019-02-23T04:34:26.276Z,1039.00
2019-02-23T04:35:26.268Z,1039.03
2019-02-23T04:36:26.248Z,1039.01
2019-02-23T04:37:26.239Z,1039.10
2019-02-23T04:38:26.221Z,1039.10
2019-02-23T04:39:34.889Z,1039.09
2019-02-23T04:41:08.483Z,1039.10
2019-02-23T04:42:08.049Z,1039.05
2019-02-23T04:43:50.205Z,1039.05
2019-02-23T04:44:50.195Z,1038.99
2019-02-23T04:45:50.180Z,1038.97
2019-02-23T04:46:50.176Z,1038.92
2019-02-23T04:47:50.158Z,1038.96
2019-02-23T04:48:50.152Z,1038.94
2019-02-23T04:49:50.140Z,1038.92
2019-02-23T04:50:50.120Z,1038.92
2019-02-23T04:51:50.107Z,1038.97
2019-02-23T04:52:50.103Z,1038.79
2019-02-23T04:53:50.097Z,1038.82
2019-02-23T04:54:50.078Z,1038.78
2019-02-23T04:55:50.069Z,1038.85
2019-02-23T04:56:50.054Z,1038.70
2019-02-23T04:57:50.073Z,1038.76
2019-02-23T04:58:50.052Z,1038.75
2019-02-23T04:59:50.028Z,1038.71
2019-02-23T05:00:50.018Z,1038.67
2019-02-23T05:01:49.995Z,1038.64
2019-02-23T05:02:49.985Z,1038.62
2019-02-23T05:03:49.984Z,1038.60
2019-02-23T05:04:49.986Z,1038.65
2019-02-23T05:05:49.956Z,1038.71
2019-02-23T05:06:49.956Z,1038.75
2019-02-23T05:07:49.932Z,1038.79
2019-02-23T05:08:49.925Z,1038.77
2019-02-23T05:09:49.924Z,1038.77
2019-02-23T05:10:49.901Z,1038.75
2019-02-23T05:11:51.704Z,1038.67
2019-02-23T05:12:49.877Z,1038.70
2019-02-23T05:13:49.863Z,1038.65
2019-02-23T05:14:49.865Z,1038.69
2019-02-23T05:15:49.843Z,1038.66
2019-02-23T05:16:49.841Z,1038.63
2019-02-23T05:17:49.823Z,1038.62
2019-02-23T05:18:49.806Z,1038.67
2019-02-23T05:19:49.797Z,1038.74
2019-02-23T05:20:49.792Z,1038.77
2019-02-23T05:21:49.786Z,1038.88
2019-02-23T05:22:49.771Z,1038.81
2019-02-23T05:23:49.754Z,1038.81
2019-02-23T05:24:49.747Z,1038.79
2019-02-23T05:25:49.736Z,1038.73
2019-02-23T05:26:49.725Z,1038.74
2019-02-23T05:27:49.709Z,1038.75
2019-02-23T05:28:49.701Z,1038.71
2019-02-23T05:29:49.683Z,1038.71
2019-02-23T05:30:49.688Z,1038.72
2019-02-23T05:31:49.670Z,1038.75
2019-02-23T05:32:49.657Z,1038.73
2019-02-23T05:33:49.647Z,1038.77
2019-02-23T05:34:49.627Z,1038.78
2019-02-23T05:35:49.681Z,1038.77
2019-02-23T05:36:49.613Z,1038.82
2019-02-23T05:37:49.602Z,1038.86
2019-02-23T05:38:49.595Z,1038.85
2019-02-23T05:39:49.580Z,1038.83
2019-02-23T05:40:49.567Z,1038.78
2019-02-23T05:41:49.558Z,1038.77
2019-02-23T05:43:00.459Z,1038.77
2019-02-23T05:43:50.560Z,1038.74
2019-02-23T05:44:49.524Z,1038.75
2019-02-23T05:45:49.530Z,1038.74
2019-02-23T05:46:49.528Z,1038.81
2019-02-23T05:47:49.496Z,1038.84
2019-02-23T05:48:49.477Z,1038.91
2019-02-23T05:49:49.500Z,1038.90
2019-02-23T05:50:49.464Z,1038.86
2019-02-23T05:51:49.446Z,1038.89
2019-02-23T05:52:49.433Z,1038.90
2019-02-23T05:53:49.421Z,1038.94
2019-02-23T05:54:49.432Z,1038.93
2019-02-23T05:55:49.404Z,1038.90
2019-02-23T05:56:49.404Z,1038.86
2019-02-23T05:57:49.382Z,1038.81
2019-02-23T05:58:49.370Z,1038.93
2019-02-23T05:59:49.383Z,1038.98
2019-02-23T06:00:49.356Z,1038.92
2019-02-23T06:01:49.371Z,1038.96
2019-02-23T06:02:49.370Z,1038.94
2019-02-23T06:03:49.307Z,1038.90
2019-02-23T06:04:49.307Z,1038.87
2019-02-23T06:05:49.291Z,1038.97
2019-02-23T06:06:49.281Z,1038.97
2019-02-23T06:07:49.287Z,1039.04
2019-02-23T06:08:49.260Z,1039.06
2019-02-23T06:09:49.242Z,1039.08
2019-02-23T06:10:49.240Z,1039.06
2019-02-23T06:11:49.236Z,1039.15
2019-02-23T06:12:49.223Z,1038.95
2019-02-23T06:13:49.215Z,1038.99
2019-02-23T06:14:49.193Z,1038.98
2019-02-23T06:15:49.180Z,1039.03
2019-02-23T06:16:49.168Z,1039.09
2019-02-23T06:17:49.167Z,1039.14
2019-02-23T06:18:49.147Z,1039.14
2019-02-23T06:19:49.141Z,1039.13
2019-02-23T06:20:49.131Z,1039.06
2019-02-23T06:21:53.477Z,1039.02
2019-02-23T06:22:50.109Z,1038.98
2019-02-23T06:23:49.098Z,1039.07
2019-02-23T06:24:49.091Z,1039.11
2019-02-23T06:25:49.134Z,1039.20
2019-02-23T06:26:49.065Z,1039.21
2019-02-23T06:27:49.047Z,1039.22
2019-02-23T06:28:49.081Z,1039.26
2019-02-23T06:29:49.046Z,1039.27
2019-02-23T06:30:49.069Z,1039.26
2019-02-23T06:31:49.011Z,1039.32
2019-02-23T06:32:48.999Z,1039.32
2019-02-23T06:33:49.007Z,1039.38
2019-02-23T06:34:48.981Z,1039.30
2019-02-23T06:35:48.967Z,1039.37
2019-02-23T06:36:48.963Z,1039.32
2019-02-23T06:37:48.939Z,1039.22
2019-02-23T06:38:48.933Z,1039.20
2019-02-23T06:39:48.921Z,1039.11
2019-02-23T06:40:48.912Z,1039.08
2019-02-23T06:41:48.902Z,1039.11
2019-02-23T06:42:48.893Z,1039.10
2019-02-23T06:43:48.872Z,1039.10
2019-02-23T06:44:48.872Z,1038.99
2019-02-23T06:45:48.858Z,1038.93
2019-02-23T06:46:48.853Z,1038.86
2019-02-23T06:47:48.829Z,1038.86
2019-02-23T06:48:48.838Z,1038.79
2019-02-23T06:49:48.815Z,1038.72
2019-02-23T06:50:48.809Z,1038.69
2019-02-23T06:51:48.839Z,1038.64
2019-02-23T06:52:48.780Z,1038.69
2019-02-23T06:53:48.776Z,1038.75
2019-02-23T06:54:48.757Z,1038.72
2019-02-23T06:55:48.747Z,1038.68
2019-02-23T06:56:48.740Z,1038.65
2019-02-23T06:57:48.748Z,1038.80
2019-02-23T06:58:48.717Z,1038.78
2019-02-23T06:59:48.707Z,1038.85
2019-02-23T07:00:48.696Z,1038.93
2019-02-23T07:01:48.706Z,1038.94
2019-02-23T07:02:48.673Z,1039.01
2019-02-23T07:03:48.660Z,1038.97
2019-02-23T07:04:48.650Z,1039.09
2019-02-23T07:05:48.664Z,1039.14
2019-02-23T07:06:48.644Z,1039.12
2019-02-23T07:07:48.626Z,1039.14
2019-02-23T07:08:48.635Z,1039.11
2019-02-23T07:09:48.601Z,1039.16
2019-02-23T07:10:48.579Z,1039.28
2019-02-23T07:11:48.571Z,1039.27
2019-02-23T07:12:48.558Z,1039.35
2019-02-23T07:13:48.550Z,1039.35
2019-02-23T07:14:48.540Z,1039.33
2019-02-23T07:15:48.525Z,1039.31
2019-02-23T07:16:48.518Z,1039.30
2019-02-23T07:17:48.529Z,1039.34
2019-02-23T07:18:48.502Z,1039.24
2019-02-23T07:19:48.482Z,1039.31
2019-02-23T07:20:48.484Z,1039.30
2019-02-23T07:21:48.465Z,1039.33
2019-02-23T07:22:48.472Z,1039.35
2019-02-23T07:23:48.466Z,1039.39
2019-02-23T07:24:48.448Z,1039.35
2019-02-23T07:25:48.428Z,1039.25
2019-02-23T07:26:48.408Z,1039.26
2019-02-23T07:27:48.484Z,1039.25
2019-02-23T07:28:48.398Z,1039.25
2019-02-23T07:29:48.394Z,1039.29
2019-02-23T07:30:48.404Z,1039.34
2019-02-23T07:31:48.351Z,1039.34
2019-02-23T07:32:48.419Z,1039.34
2019-02-23T07:33:48.334Z,1039.38
2019-02-23T07:34:48.330Z,1039.49
2019-02-23T07:35:48.320Z,1039.45
2019-02-23T07:36:48.299Z,1039.40
2019-02-23T07:37:48.288Z,1039.39
2019-02-23T07:38:48.289Z,1039.25
2019-02-23T07:39:48.275Z,1039.26
2019-02-23T07:40:48.264Z,1039.13
2019-02-23T07:41:48.248Z,1039.07
2019-02-23T07:42:48.234Z,1039.03
2019-02-23T07:43:48.223Z,1038.96
2019-02-23T07:44:48.219Z,1038.90
2019-02-23T07:45:48.211Z,1038.93
2019-02-23T07:46:48.198Z,1038.90
2019-02-23T07:47:48.183Z,1038.93
2019-02-23T07:48:48.171Z,1038.90
2019-02-23T07:49:48.161Z,1038.88
2019-02-23T07:50:48.147Z,1038.83
2019-02-23T07:51:48.162Z,1038.79
2019-02-23T07:52:48.129Z,1038.65
2019-02-23T07:53:48.119Z,1038.62
2019-02-23T07:54:48.133Z,1038.55
2019-02-23T07:55:48.092Z,1038.52
2019-02-23T07:56:48.090Z,1038.48
2019-02-23T07:57:48.104Z,1038.44
2019-02-23T07:58:48.075Z,1038.44
2019-02-23T07:59:48.065Z,1038.43
2019-02-23T08:00:48.051Z,1038.41
2019-02-23T08:01:48.043Z,1038.38
2019-02-23T08:02:48.151Z,1038.41
2019-02-23T08:03:48.015Z,1038.51
2019-02-23T08:04:48.005Z,1038.60
2019-02-23T08:05:47.990Z,1038.63
2019-02-23T08:06:47.988Z,1038.66
2019-02-23T08:07:47.988Z,1038.79
2019-02-23T08:08:47.957Z,1038.83
2019-02-23T08:09:47.954Z,1038.76
2019-02-23T08:10:47.944Z,1038.85
2019-02-23T08:11:47.929Z,1038.87
2019-02-23T08:12:47.920Z,1038.90
2019-02-23T08:13:47.909Z,1038.95
2019-02-23T08:14:48.110Z,1038.97
2019-02-23T08:15:47.886Z,1038.98
2019-02-23T08:16:47.877Z,1039.01
2019-02-23T08:17:47.884Z,1039.10
2019-02-23T08:18:47.851Z,1039.06
2019-02-23T08:19:47.891Z,1039.06
2019-02-23T08:20:47.841Z,1039.07
2019-02-23T08:21:47.816Z,1039.08
2019-02-23T08:22:47.965Z,1039.13
2019-02-23T08:23:47.951Z,1039.15
2019-02-23T08:24:47.788Z,1039.19
2019-02-23T08:25:47.770Z,1039.17
2019-02-23T08:26:47.785Z,1039.14
2019-02-23T08:27:47.755Z,1039.11
2019-02-23T08:28:47.746Z,1039.10
2019-02-23T08:29:48.057Z,1039.05
2019-02-23T08:30:47.757Z,1039.04
2019-02-23T08:31:47.727Z,1039.11
2019-02-23T08:32:47.699Z,1039.08
2019-02-23T08:33:47.683Z,1039.07
2019-02-23T08:34:47.678Z,1039.05
2019-02-23T08:35:47.674Z,1039.10
2019-02-23T08:36:47.654Z,1039.11
2019-02-23T08:37:47.658Z,1039.04
2019-02-23T08:38:47.632Z,1039.03
2019-02-23T08:39:47.636Z,1039.11
2019-02-23T08:40:47.614Z,1039.10
2019-02-23T08:41:47.598Z,1039.10
2019-02-23T08:42:47.583Z,1039.11
2019-02-23T08:43:47.590Z,1039.11
2019-02-23T08:44:47.572Z,1039.22
2019-02-23T08:45:47.557Z,1039.14
2019-02-23T08:46:47.541Z,1039.06
2019-02-23T08:47:47.549Z,1039.10
2019-02-23T08:48:47.519Z,1039.11
2019-02-23T08:49:47.535Z,1039.06
2019-02-23T08:50:47.546Z,1039.02
2019-02-23T08:51:47.489Z,1039.03
2019-02-23T08:52:49.971Z,1039.06
2019-02-23T08:53:47.499Z,1039.16
2019-02-23T08:54:47.450Z,1039.16
2019-02-23T08:55:47.474Z,1039.16
2019-02-23T08:56:47.437Z,1039.14
2019-02-23T08:57:47.419Z,1039.14
2019-02-23T08:58:47.414Z,1039.18
2019-02-23T08:59:47.626Z,1039.10
2019-02-23T09:00:47.388Z,1039.09
2019-02-23T09:01:47.376Z,1039.09
2019-02-23T09:02:47.378Z,1039.08
2019-02-23T09:03:49.703Z,1039.11
2019-02-23T09:04:47.343Z,1039.06
2019-02-23T09:05:47.338Z,1039.01
2019-02-23T09:06:47.330Z,1039.11
2019-02-23T09:07:47.307Z,1039.10
2019-02-23T09:08:47.290Z,1039.14
2019-02-23T09:09:47.287Z,1039.15
2019-02-23T09:10:47.264Z,1039.09
2019-02-23T09:11:47.262Z,1039.13
2019-02-23T09:12:47.257Z,1039.15
2019-02-23T09:13:47.265Z,1039.16
2019-02-23T09:14:47.231Z,1039.14
2019-02-23T09:15:47.251Z,1039.11
2019-02-23T09:16:47.197Z,1039.08
2019-02-23T09:17:47.189Z,1039.08
2019-02-23T09:18:47.214Z,1039.05
2019-02-23T09:19:47.171Z,1039.07
2019-02-23T09:20:47.183Z,1039.08
2019-02-23T09:21:47.152Z,1039.01
2019-02-23T09:22:47.177Z,1039.07
2019-02-23T09:23:47.121Z,1039.03
2019-02-23T09:24:47.112Z,1039.06
2019-02-23T09:25:47.113Z,1038.96
2019-02-23T09:26:47.094Z,1038.95
2019-02-23T09:27:47.075Z,1038.87
2019-02-23T09:28:47.074Z,1038.92
2019-02-23T09:29:47.053Z,1038.88
2019-02-23T09:30:47.099Z,1038.94
2019-02-23T09:31:47.039Z,1038.95
2019-02-23T09:32:47.204Z,1038.92
2019-02-23T09:33:47.055Z,1038.93
2019-02-23T09:34:47.010Z,1038.96
2019-02-23T09:35:46.992Z,1038.88
2019-02-23T09:36:46.986Z,1038.88
2019-02-23T09:37:46.978Z,1038.92
2019-02-23T09:38:46.963Z,1038.84
2019-02-23T09:39:46.948Z,1038.91
2019-02-23T09:40:46.938Z,1038.88
2019-02-23T09:41:46.928Z,1038.89
2019-02-23T09:42:46.918Z,1038.90
2019-02-23T09:43:46.901Z,1038.85
2019-02-23T09:44:46.896Z,1038.85
2019-02-23T09:45:46.885Z,1038.86
2019-02-23T09:46:46.884Z,1038.86
2019-02-23T09:47:46.864Z,1038.81
2019-02-23T09:48:46.854Z,1038.89
2019-02-23T09:49:46.843Z,1038.88
2019-02-23T09:50:46.821Z,1038.86
2019-02-23T09:51:46.820Z,1038.91
2019-02-23T09:52:46.810Z,1038.86
2019-02-23T09:53:46.834Z,1038.87
2019-02-23T09:54:46.795Z,1038.86
2019-02-23T09:55:46.782Z,1038.95
2019-02-23T09:56:46.757Z,1038.97
2019-02-23T09:57:46.749Z,1038.94
2019-02-23T09:58:46.761Z,1038.87
2019-02-23T09:59:46.730Z,1038.83
2019-02-23T10:00:46.727Z,1038.80
2019-02-23T10:01:46.702Z,1038.85
2019-02-23T10:02:46.693Z,1038.81
2019-02-23T10:03:46.696Z,1038.79
2019-02-23T10:04:46.685Z,1038.73
2019-02-23T10:05:46.673Z,1038.82
2019-02-23T10:06:46.657Z,1038.77
2019-02-23T10:07:46.635Z,1038.79
2019-02-23T10:08:46.692Z,1038.74
2019-02-23T10:09:46.619Z,1038.66
2019-02-23T10:10:46.607Z,1038.59
2019-02-23T10:11:46.596Z,1038.61
2019-02-23T10:12:46.593Z,1038.63
2019-02-23T10:13:46.574Z,1038.65
2019-02-23T10:14:46.566Z,1038.71
2019-02-23T10:15:46.566Z,1038.66
2019-02-23T10:16:46.614Z,1038.72
2019-02-23T10:17:46.558Z,1038.65
2019-02-23T10:18:46.544Z,1038.69
2019-02-23T10:19:46.515Z,1038.69
2019-02-23T10:20:46.500Z,1038.58
2019-02-23T10:21:46.494Z,1038.57
2019-02-23T10:22:46.566Z,1038.53
2019-02-23T10:23:46.475Z,1038.52
2019-02-23T10:24:46.452Z,1038.53
2019-02-23T10:25:46.446Z,1038.44
2019-02-23T10:26:46.441Z,1038.56
2019-02-23T10:27:46.422Z,1038.53
2019-02-23T10:28:46.406Z,1038.45
2019-02-23T10:29:46.394Z,1038.47
2019-02-23T10:30:46.388Z,1038.48
2019-02-23T10:31:46.384Z,1038.43
2019-02-23T10:32:46.364Z,1038.37
2019-02-23T10:33:47.917Z,1038.39
2019-02-23T10:34:46.356Z,1038.39
2019-02-23T10:35:46.343Z,1038.38
2019-02-23T10:36:46.334Z,1038.43
2019-02-23T10:37:46.324Z,1038.48
2019-02-23T10:38:46.299Z,1038.43
2019-02-23T10:39:46.295Z,1038.41
2019-02-23T10:40:46.284Z,1038.41
2019-02-23T10:41:46.337Z,1038.38
2019-02-23T10:42:46.273Z,1038.39
2019-02-23T10:43:46.347Z,1038.31
2019-02-23T10:44:46.248Z,1038.34
2019-02-23T10:45:46.316Z,1038.36
2019-02-23T10:46:46.212Z,1038.31
2019-02-23T10:47:46.205Z,1038.30
2019-02-23T10:48:46.205Z,1038.35
2019-02-23T10:49:46.179Z,1038.34
2019-02-23T10:50:46.173Z,1038.27
2019-02-23T10:51:46.171Z,1038.28
2019-02-23T10:52:46.141Z,1038.27
2019-02-23T10:53:46.137Z,1038.16
2019-02-23T10:54:47.245Z,1038.13
2019-02-23T10:55:46.162Z,1038.18
2019-02-23T10:56:46.141Z,1038.26
2019-02-23T10:57:46.094Z,1038.22
2019-02-23T10:58:46.081Z,1038.20
2019-02-23T10:59:46.069Z,1038.30
2019-02-23T11:00:46.097Z,1038.19
2019-02-23T11:01:46.043Z,1038.26
2019-02-23T11:02:46.052Z,1038.26
2019-02-23T11:03:46.041Z,1038.21
2019-02-23T11:04:46.070Z,1038.23
2019-02-23T11:05:46.006Z,1038.28
2019-02-23T11:06:45.995Z,1038.21
2019-02-23T11:07:45.992Z,1038.24
2019-02-23T11:08:45.991Z,1038.21
2019-02-23T11:09:45.956Z,1038.20
2019-02-23T11:10:45.947Z,1038.22
2019-02-23T11:11:48.316Z,1038.26
2019-02-23T11:12:45.934Z,1038.26
2019-02-23T11:13:45.919Z,1038.28
2019-02-23T11:14:45.920Z,1038.27
2019-02-23T11:15:45.896Z,1038.27
2019-02-23T11:16:45.884Z,1038.23
2019-02-23T11:17:45.869Z,1038.21
2019-02-23T11:18:45.856Z,1038.23
2019-02-23T11:19:45.877Z,1038.20
2019-02-23T11:20:45.849Z,1038.27
2019-02-23T11:21:45.827Z,1038.21
2019-02-23T11:22:45.813Z,1038.19
2019-02-23T11:23:45.825Z,1038.19
2019-02-23T11:24:45.805Z,1038.24
2019-02-23T11:25:45.798Z,1038.15
2019-02-23T11:26:45.777Z,1038.14
2019-02-23T11:27:45.763Z,1038.07
2019-02-23T11:28:45.753Z,1038.06
2019-02-23T11:29:45.755Z,1038.00
2019-02-23T11:30:45.787Z,1037.95
2019-02-23T11:31:45.724Z,1037.93
2019-02-23T11:32:45.703Z,1037.85
2019-02-23T11:33:45.694Z,1037.92
2019-02-23T11:34:45.691Z,1037.90
2019-02-23T11:35:45.672Z,1037.89
2019-02-23T11:36:45.668Z,1037.88
2019-02-23T11:37:45.665Z,1037.84
2019-02-23T11:38:45.674Z,1037.83
2019-02-23T11:39:45.635Z,1037.82
2019-02-23T11:40:45.624Z,1037.74
2019-02-23T11:41:45.618Z,1037.74
2019-02-23T11:42:45.613Z,1037.76
2019-02-23T11:43:45.589Z,1037.72
2019-02-23T11:44:45.580Z,1037.74
2019-02-23T11:45:45.575Z,1037.68
2019-02-23T11:46:59.992Z,1037.65
2019-02-23T11:47:46.546Z,1037.62
2019-02-23T11:48:45.530Z,1037.61
2019-02-23T11:49:45.598Z,1037.67
2019-02-23T11:50:45.511Z,1037.65
2019-02-23T11:51:45.557Z,1037.72
2019-02-23T11:52:45.502Z,1037.75
2019-02-23T11:53:54.570Z,1037.77
2019-02-23T11:54:46.460Z,1037.78
2019-02-23T11:55:45.504Z,1037.85
2019-02-23T11:56:45.444Z,1037.83
2019-02-23T11:57:45.442Z,1037.77
2019-02-23T11:58:45.425Z,1037.85
2019-02-23T11:59:45.420Z,1037.68
2019-02-23T12:00:45.412Z,1037.63
2019-02-23T12:01:45.464Z,1037.62
2019-02-23T12:02:52.396Z,1037.62
2019-02-23T12:03:46.373Z,1037.59
2019-02-23T12:04:45.359Z,1037.59
2019-02-23T12:05:45.352Z,1037.58
2019-02-23T12:06:45.329Z,1037.61
2019-02-23T12:07:45.320Z,1037.59
2019-02-23T12:08:45.307Z,1037.58
2019-02-23T12:09:45.295Z,1037.69